SCEL 261700Z VRB01KT 8000 SCT120 BKN150 14/05 Q1017 NOSIG